Flight Track Log - Related Links

Times and Time Zones

All times are in EDT time to prevent confusion due to time zone crossing. See the UAL906 flight status page for this flight to view local times or setup timezone preferences in your user account.

Time Position Orientation Groundspeed Altitude Reporting Facility
EDT Latitude Longitude Course Direction KTS MPH feet Rate Location/Type
Wed 07:12:54 AM 50.0720 8.7040 308° West 200 230 3,600  Level FlightAware ADS-B
Wed 07:13:00 AM 50.2299 8.1070 308° West  Level FlightAware Approximate
Wed 07:13:05 AM 50.0780 8.7170 54° Northeast 213 245 3,700  Level FlightAware ADS-B
Wed 07:13:21 AM 50.0940 8.7290 26° Northeast 225 259 4,200 1,556 Climbing FlightAware ADS-B
Wed 07:13:32 AM 50.1020 8.7340 22° Northeast 233 268 4,400 1,231 Climbing FlightAware ADS-B
Wed 07:14:00 AM 50.1340 8.7530 21° North 260 299 5,000 1,745 Climbing FlightAware ADS-B
Wed 07:14:27 AM 50.1660 8.7740 23° Northeast 270 311 6,000 2,160 Climbing FlightAware ADS-B
Wed 07:14:50 AM 50.1920 8.7900 22° Northeast 276 318 6,800 1,846 Climbing FlightAware ADS-B
Wed 07:15:06 AM 50.2090 8.7960 13° North 284 327 7,200 1,143 Climbing FlightAware ADS-B
Wed 07:15:32 AM 50.2440 8.7790 343° North 322 371 7,600 878 Climbing FlightAware ADS-B
Wed 07:15:47 AM 50.2590 8.7540 313° West 351 404 7,800 1,525 Climbing FlightAware ADS-B
Wed 07:16:31 AM 50.2950 8.6360 296° West 373 429 9,100 2,100 Climbing FlightAware ADS-B
Wed 07:16:47 AM 50.3060 8.5970 294° West 370 426 9,900 2,250 Climbing FlightAware ADS-B
Wed 07:17:27 AM 50.3370 8.5020 297° West 381 438 11,200 2,211 Climbing FlightAware ADS-B
Wed 07:18:03 AM 50.3680 8.4140 299° West 382 440 12,700 2,071 Climbing FlightAware ADS-B
Wed 07:18:51 AM 50.4110 8.2970 300° West 394 453 14,100 1,761 Climbing FlightAware ADS-B
Wed 07:19:35 AM 50.4500 8.1870 299° West 404 465 15,400 1,756 Climbing FlightAware ADS-B
Wed 07:20:13 AM 50.4850 8.0870 299° West 411 473 16,500 1,725 Climbing FlightAware ADS-B
Wed 07:20:55 AM 50.5230 7.9780 299° West 417 480 17,700 1,605 Climbing FlightAware ADS-B
Wed 07:21:39 AM 50.5640 7.8600 299° West 424 488 18,800 1,465 Climbing FlightAware ADS-B
Wed 07:22:21 AM 50.6050 7.7450 299° West 430 495 19,800 1,395 Climbing FlightAware ADS-B
Wed 07:23:05 AM 50.6470 7.6230 299° West 439 505 20,800 1,390 Climbing FlightAware ADS-B
Wed 07:23:43 AM 50.6840 7.5140 298° West 444 511 21,700 1,429 Climbing FlightAware ADS-B
Wed 07:24:29 AM 50.7250 7.3840 297° West 446 513 22,800 1,357 Climbing FlightAware ADS-B
Wed 07:25:07 AM 50.7580 7.2720 295° West 451 519 23,600 1,214 Climbing FlightAware ADS-B
Wed 07:25:53 AM 50.8010 7.1320 296° West 458 527 24,500 1,135 Climbing FlightAware ADS-B
Wed 07:26:21 AM 50.8260 7.0460 295° West 464 534 25,000 1,167 Climbing FlightAware ADS-B
Wed 07:27:05 AM 50.8680 6.9090 296° West 469 540 25,900 1,159 Climbing FlightAware ADS-B
Wed 07:27:49 AM 50.9080 6.7740 295° West 474 545 26,700 1,154 Climbing FlightAware ADS-B
Wed 07:28:23 AM 50.9410 6.6650 296° West 477 549 27,400 1,135 Climbing FlightAware ADS-B
Wed 07:29:03 AM 50.9780 6.5380 295° West 482 555 28,100 951 Climbing FlightAware ADS-B
Wed 07:29:45 AM 51.0170 6.4060 295° West 486 559 28,700 907 Climbing FlightAware ADS-B
Wed 07:30:29 AM 51.0600 6.2600 295° West 491 565 29,400 886 Climbing FlightAware ADS-B
Wed 07:31:13 AM 51.1020 6.1150 295° West 497 572 30,000 1,071 Climbing FlightAware ADS-B
Wed 07:31:53 AM 51.1380 5.9910 295° West 491 565 30,900 1,357 Climbing FlightAware ADS-B
Wed 07:32:37 AM 51.1860 5.8550 299° West 490 564 31,900 1,267 Climbing FlightAware ADS-B
Wed 07:33:23 AM 51.2440 5.7090 302° West 486 559 32,800 978 Climbing FlightAware ADS-B
Wed 07:34:09 AM 51.2970 5.5710 302° West 487 560 33,400 828 Climbing FlightAware ADS-B
Wed 07:34:50 AM 51.3440 5.4450 301° West 485 558 34,000 468 Climbing FlightAware ADS-B
Wed 07:35:26 AM 51.3840 5.3350 300° West 484 557 34,000  Level FlightAware ADS-B
Wed 07:36:05 AM 51.4290 5.2140 301° West 484 557 34,000  Level FlightAware ADS-B
Wed 07:36:51 AM 51.4790 5.0770 300° West 484 557 34,000  Level FlightAware ADS-B
Wed 07:37:31 AM 51.5270 4.9440 300° West 484 557 34,000  Level FlightAware ADS-B
Wed 07:38:15 AM 51.5690 4.8010 295° West 480 552 34,000  Level FlightAware ADS-B
Wed 07:38:55 AM 51.5910 4.6670 285° West 478 550 34,000  Level FlightAware ADS-B
Wed 07:39:35 AM 51.6080 4.5250 281° West 478 550 34,000  Level FlightAware ADS-B
Wed 07:40:19 AM 51.6260 4.3740 281° West 478 550 34,000  Level FlightAware ADS-B
Wed 07:40:58 AM 51.6420 4.2350 281° West 477 549 34,000  Level FlightAware ADS-B
Wed 07:41:37 AM 51.6582 4.0970 281° West 484 557 34,000  Level FlightAware UK
Wed 07:41:40 AM 51.6590 4.0860 281° West 477 549 34,000  Level FlightAware ADS-B
Wed 07:42:23 AM 51.6760 3.9370 280° West 478 550 34,000  Level FlightAware ADS-B
Wed 07:43:07 AM 51.6920 3.7820 280° West 478 550 34,000  Level FlightAware ADS-B
Wed 07:43:46 AM 51.6980 3.6500 274° West 478 550 34,000  Level FlightAware ADS-B
Wed 07:44:28 AM 51.6990 3.4980 271° West 479 551 34,000  Level FlightAware ADS-B
Wed 07:45:12 AM 51.6990 3.3420 270° West 481 554 34,000 -74 Level FlightAware ADS-B
Wed 07:45:49 AM 51.6986 3.2068 270° West 482 555 33,900  Descending FlightAware UK
Wed 07:45:55 AM 51.6980 3.1870 270° West 482 555 34,000 130 Climbing FlightAware ADS-B
Wed 07:46:35 AM 51.6970 3.0440 269° West 483 556 34,000  Level FlightAware ADS-B
Wed 07:47:15 AM 51.6970 2.9070 270° West 483 556 34,000  Level FlightAware ADS-B
Wed 07:47:51 AM 51.6960 2.7730 269° West 483 556 34,000  Level FlightAware ADS-B
Wed 07:48:36 AM 51.6940 2.6140 269° West 483 556 34,000  Level FlightAware ADS-B
Wed 07:49:15 AM 51.6930 2.4770 269° West 484 557 34,000  Level FlightAware ADS-B
Wed 07:49:52 AM 51.6910 2.3350 269° West 484 557 34,000  Level FlightAware ADS-B
Wed 07:50:36 AM 51.6890 2.1790 269° West 484 557 34,000  Level FlightAware ADS-B
Wed 07:51:12 AM 51.6880 2.0510 269° West 483 556 34,000  Level FlightAware ADS-B
Wed 07:52:01 AM 51.6850 1.8790 268° West 482 555 34,000  Level FlightAware ADS-B
Wed 07:52:38 AM 51.6830 1.7440 269° West 481 554 34,000  Level FlightAware ADS-B
Wed 07:53:25 AM 51.6735 1.5727 269° West 482 555 34,000  Level FlightAware UK
Wed 07:53:25 AM 51.6740 1.5740 269° West 481 554 34,000  Level FlightAware ADS-B
Wed 07:54:01 AM 51.6660 1.4560 269° West 480 552 34,000  Level FlightAware ADS-B
Wed 07:54:07 AM 51.6645 1.4243 269° West 484 557 34,000  Level FlightAware UK
Wed 07:54:42 AM 51.6576 1.2987 265° West 481 554 34,000  Level FlightAware ADS-B
Wed 07:55:14 AM 51.6514 1.1858 265° West 480 552 34,000  Level FlightAware ADS-B
Wed 07:55:44 AM 51.6456 1.0792 265° West 479 551 34,000  Level FlightAware ADS-B
Wed 07:56:15 AM 51.6395 0.9705 265° West 479 551 34,000  Level FlightAware ADS-B
Wed 07:56:46 AM 51.6332 0.8612 265° West 479 551 34,000  Level FlightAware ADS-B
Wed 07:57:19 AM 51.6262 0.7431 265° West 479 551 34,000  Level FlightAware ADS-B
Wed 07:57:50 AM 51.6196 0.6342 264° West 479 551 34,000  Level FlightAware ADS-B
Wed 07:58:20 AM 51.6129 0.5266 264° West 479 551 34,000  Level FlightAware ADS-B
Wed 07:58:50 AM 51.6063 0.4198 264° West 479 551 34,000  Level FlightAware ADS-B
Wed 07:59:22 AM 51.5993 0.3087 264° West 480 552 34,000  Level FlightAware ADS-B
Wed 07:59:53 AM 51.5923 0.1998 264° West 481 554 34,000  Level FlightAware ADS-B
Wed 08:00:23 AM 51.5854 0.0936 264° West 481 554 34,000  Level FlightAware ADS-B
Wed 08:00:53 AM 51.5783 -0.0130 264° West 481 554 34,000  Level FlightAware ADS-B
Wed 08:01:24 AM 51.5710 -0.1232 264° West 481 554 34,000  Level FlightAware ADS-B
Wed 08:01:54 AM 51.5637 -0.2298 264° West 481 554 34,000  Level FlightAware ADS-B
Wed 08:02:25 AM 51.5561 -0.3386 264° West 481 554 34,000  Level FlightAware ADS-B
Wed 08:02:52 AM 51.5526 -0.4362 267° West 481 554 34,000  Level FlightAware ADS-B
Wed 08:03:07 AM 51.5541 -0.4879 273° West 481 554 34,000  Level FlightAware ADS-B
Wed 08:03:37 AM 51.5632 -0.5959 278° West 483 556 34,000  Level FlightAware ADS-B
Wed 08:04:07 AM 51.5726 -0.7020 278° West 483 556 34,000  Level FlightAware ADS-B
Wed 08:04:37 AM 51.5822 -0.8085 278° West 482 555 34,000  Level FlightAware ADS-B
Wed 08:05:08 AM 51.5918 -0.9156 278° West 482 555 34,000  Level FlightAware ADS-B
Wed 08:05:38 AM 51.6013 -1.0240 278° West 482 555 34,000  Level FlightAware ADS-B
Wed 08:06:11 AM 51.6113 -1.1385 278° West 481 554 34,000  Level FlightAware ADS-B
Wed 08:06:44 AM 51.6215 -1.2551 278° West 482 555 34,000  Level FlightAware ADS-B
Wed 08:07:14 AM 51.6306 -1.3622 278° West 481 554 34,000  Level FlightAware ADS-B
Wed 08:07:45 AM 51.6399 -1.4711 278° West 481 554 34,000  Level FlightAware ADS-B
Wed 08:08:16 AM 51.6493 -1.5826 278° West 481 554 34,000  Level FlightAware ADS-B
Wed 08:08:47 AM 51.6583 -1.6909 278° West 481 554 34,000  Level FlightAware ADS-B
Wed 08:09:17 AM 51.6671 -1.7990 278° West 482 555 34,000  Level FlightAware ADS-B
Wed 08:09:48 AM 51.6761 -1.9086 278° West 482 555 34,000  Level FlightAware ADS-B
Wed 08:10:19 AM 51.6846 -2.0158 277° West 482 555 34,000  Level FlightAware ADS-B
Wed 08:10:51 AM 51.6937 -2.1301 277° West 482 555 34,000  Level FlightAware ADS-B
Wed 08:11:21 AM 51.7022 -2.2381 277° West 482 555 34,000  Level FlightAware ADS-B
Wed 08:11:53 AM 51.7108 -2.3497 277° West 482 555 34,000  Level FlightAware ADS-B
Wed 08:12:25 AM 51.7195 -2.4638 277° West 482 555 34,000  Level FlightAware ADS-B
Wed 08:12:56 AM 51.7277 -2.5738 277° West 482 555 34,000  Level FlightAware ADS-B
Wed 08:13:28 AM 51.7363 -2.6882 277° West 483 556 34,000 270 Level FlightAware ADS-B
Wed 08:14:25 AM 51.7510 -2.8890 277° West 480 552 34,400 335 Climbing FlightAware ADS-B
Wed 08:16:09 AM 51.7789 -3.2677 277° West 488 562 34,900 197 Climbing FlightAware UK
Wed 08:16:57 AM 51.8001 -3.4405 281° West 488 562 34,900 -240 Level FlightAware UK
Wed 08:17:24 AM 51.7870 -3.4470 281° West 482 555 34,600 56 Descending FlightAware ADS-B
Wed 08:18:44 AM 51.8420 -3.7700 286° West 492 566 35,000 185 Climbing FlightAware ADS-B
Wed 08:19:34 AM 51.8650 -3.9510 282° West 490 564 35,000  Level FlightAware ADS-B
Wed 08:20:09 AM 51.8810 -4.0820 281° West 490 564 35,000  Level FlightAware ADS-B
Wed 08:20:54 AM 51.9060 -4.2890 281° West 490 564 35,000  Level FlightAware ADS-B
Wed 08:21:38 AM 51.9250 -4.4440 281° West 490 564 35,000  Level FlightAware ADS-B
Wed 08:22:21 AM 51.9430 -4.5960 281° West 491 565 35,000  Level FlightAware ADS-B
Wed 08:23:01 AM 51.9600 -4.7430 281° West 491 565 35,000  Level FlightAware ADS-B
Wed 08:23:39 AM 51.9760 -4.8810 281° West 490 564 35,000  Level FlightAware ADS-B
Wed 08:24:27 AM 52.0010 -5.0480 284° West 487 560 35,000  Level FlightAware ADS-B
Wed 08:25:08 AM 52.0330 -5.1900 290° West 486 559 35,000  Level FlightAware ADS-B
Wed 08:25:51 AM 52.0690 -5.3360 292° West 486 559 35,000  Level FlightAware ADS-B
Wed 08:26:23 AM 52.0960 -5.4440 292° West 485 558 35,000  Level FlightAware ADS-B
Wed 08:27:07 AM 52.1340 -5.5930 293° West 484 557 35,000  Level FlightAware ADS-B
Wed 08:27:51 AM 52.1700 -5.7370 292° West 485 558 35,000  Level FlightAware ADS-B
Wed 08:28:23 AM 52.1980 -5.8510 292° West 484 557 35,000  Level FlightAware ADS-B
Wed 08:29:08 AM 52.2320 -5.9920 292° West 484 557 35,000  Level FlightAware ADS-B
Wed 08:29:47 AM 52.2660 -6.1310 292° West 485 558 35,000  Level FlightAware ADS-B
Wed 08:30:28 AM 52.2990 -6.2670 292° West 486 559 35,000  Level FlightAware ADS-B
Wed 08:31:12 AM 52.3360 -6.4230 291° West 488 562 35,000  Level FlightAware ADS-B
Wed 08:31:57 AM 52.3740 -6.5800 292° West 490 564 35,000  Level FlightAware ADS-B
Wed 08:32:33 AM 52.4020 -6.6990 291° West 490 564 35,000  Level FlightAware ADS-B
Wed 08:33:13 AM 52.4350 -6.8400 291° West 491 565 35,000  Level FlightAware ADS-B
Wed 08:33:53 AM 52.4670 -6.9770 291° West 492 566 35,000  Level FlightAware ADS-B
Wed 08:34:37 AM 52.5000 -7.1180 291° West 490 564 35,000  Level FlightAware ADS-B
Wed 08:35:13 AM 52.5310 -7.2560 290° West 490 564 35,000  Level FlightAware ADS-B
Wed 08:35:53 AM 52.5640 -7.3980 291° West 491 565 35,000  Level FlightAware ADS-B
Wed 08:36:33 AM 52.5950 -7.5370 290° West 493 567 35,000  Level FlightAware ADS-B
Wed 08:37:13 AM 52.6270 -7.6790 290° West 494 568 35,000  Level FlightAware ADS-B
Wed 08:37:53 AM 52.6590 -7.8190 291° West 494 568 35,000  Level FlightAware ADS-B
Wed 08:38:33 AM 52.6900 -7.9590 290° West 494 568 35,000  Level FlightAware ADS-B
Wed 08:39:13 AM 52.7220 -8.1040 290° West 495 570 35,000  Level FlightAware ADS-B
Wed 08:39:58 AM 52.7570 -8.2620 290° West 494 568 35,000  Level FlightAware ADS-B
Wed 08:40:38 AM 52.7880 -8.4070 290° West 494 568 35,000  Level FlightAware ADS-B
Wed 08:41:18 AM 52.8180 -8.5450 290° West 495 570 35,000  Level FlightAware ADS-B
Wed 08:42:04 AM 52.8540 -8.7110 290° West 496 571 35,000  Level FlightAware ADS-B
Wed 08:42:43 AM 52.8820 -8.8430 289° West 495 570 35,000  Level FlightAware ADS-B
Wed 08:43:23 AM 52.9150 -8.9960 290° West 495 570 35,000  Level FlightAware ADS-B
Wed 08:44:08 AM 52.9480 -9.1560 289° West 494 568 35,000  Level FlightAware ADS-B
Wed 08:44:49 AM 52.9780 -9.3000 289° West 493 567 35,000  Level FlightAware ADS-B
Wed 08:45:33 AM 53.0100 -9.4520 289° West 492 566 35,000  Level FlightAware ADS-B
Wed 08:46:33 AM 53.0550 -9.6730 289° West 489 563 35,000  Level FlightAware ADS-B
Wed 08:47:13 AM 53.0850 -9.8180 289° West 489 563 35,000  Level FlightAware ADS-B
Wed 08:47:53 AM 53.1130 -9.9580 288° West 488 562 35,000  Level FlightAware ADS-B
Wed 08:48:33 AM 53.1410 -10.1000 288° West 488 562 35,000  Level FlightAware ADS-B
Wed 08:49:13 AM 53.1700 -10.2450 289° West 488 562 35,000  Level FlightAware ADS-B
Wed 08:49:54 AM 53.1990 -10.3900 289° West 488 562 35,000  Level FlightAware ADS-B
Wed 08:50:34 AM 53.2270 -10.5330 288° West 487 560 35,000  Level FlightAware ADS-B
Wed 08:51:14 AM 53.2540 -10.6750 288° West 488 562 35,000  Level FlightAware ADS-B
Wed 08:51:49 AM 53.2790 -10.8030 288° West 487 560 35,000  Level FlightAware ADS-B
Wed 08:52:49 AM 53.3180 -11.0070 288° West 485 558 35,000  Level FlightAware ADS-B
Wed 08:53:24 AM 53.3430 -11.1380 288° West 484 557 35,000  Level FlightAware ADS-B
Wed 08:54:04 AM 53.3710 -11.2840 288° West 482 555 35,000  Level FlightAware ADS-B
Wed 08:54:50 AM 53.4000 -11.4420 287° West 480 552 35,000  Level FlightAware ADS-B
Wed 08:55:30 AM 53.4260 -11.5850 287° West 477 549 35,000  Level FlightAware ADS-B
Wed 08:56:09 AM 53.4530 -11.7260 288° West 477 549 35,000  Level FlightAware ADS-B
Wed 08:56:54 AM 53.4820 -11.8890 287° West 477 549 35,000  Level FlightAware ADS-B
Wed 08:57:34 AM 53.5080 -12.0290 287° West 476 548 35,000  Level FlightAware ADS-B
Wed 08:58:14 AM 53.5330 -12.1680 287° West 474 545 35,000  Level FlightAware ADS-B
Wed 08:58:50 AM 53.5550 -12.2940 286° West 474 545 35,000  Level FlightAware ADS-B
Wed 08:59:29 AM 53.5800 -12.4340 287° West 473 544 35,000  Level FlightAware ADS-B
Wed 09:00:28 AM 53.6170 -12.6470 286° West 474 545 35,000  Level FlightAware ADS-B
Wed 09:01:08 AM 53.6390 -12.7750 286° West 472 543 35,000  Level FlightAware ADS-B
Wed 09:01:55 AM 53.6670 -12.9380 286° West 471 542 35,000 146 Level FlightAware ADS-B
Wed 09:02:30 AM 53.6890 -13.0670 286° West 469 540 35,200 375 Climbing FlightAware ADS-B
Wed 09:03:15 AM 53.7170 -13.2280 286° West 465 535 35,500 316 Climbing FlightAware ADS-B
Wed 09:04:05 AM 53.7420 -13.3900 285° West 463 533 35,700 333 Climbing FlightAware ADS-B
Wed 09:04:45 AM 53.7690 -13.5430 287° West 466 536 36,000 225 Climbing FlightAware ADS-B
Wed 09:05:25 AM 53.7870 -13.6630 284° West 466 536 36,000  Level FlightAware ADS-B
Wed 09:06:00 AM 53.8100 -13.7940 287° West 465 535 36,000  Level FlightAware ADS-B
Wed 09:06:51 AM 53.8330 -13.9470 284° West 465 535 36,000  Level FlightAware ADS-B
Wed 09:07:30 AM 53.8640 -14.1240 287° West 464 534 36,000  Level FlightAware ADS-B
Wed 09:08:12 AM 53.8830 -14.2520 284° West 464 534 36,000  Level FlightAware ADS-B
Wed 09:08:52 AM 53.9040 -14.3870 285° West 464 534 36,000  Level FlightAware ADS-B
Wed 09:09:40 AM 53.9260 -14.5320 285° West 464 534 36,000  Level FlightAware ADS-B
Wed 09:10:16 AM 53.9420 -14.6400 284° West 464 534 36,000  Level FlightAware ADS-B
Wed 09:10:53 AM 53.9580 -14.7510 284° West 464 534 36,000  Level FlightAware ADS-B
Wed 09:12:10 AM 53.9920 -14.9830 284° West 464 534 36,000  Level FlightAware ADS-B
Wed 09:12:48 AM 54.0090 -15.0980 284° West 464 534 36,000  Level FlightAware ADS-B
Wed 09:13:36 AM 54.0300 -15.2420 284° West 464 534 36,000  Level FlightAware ADS-B
Wed 09:14:13 AM 54.0460 -15.3540 284° West 464 534 36,000  Level FlightAware ADS-B
Wed 09:15:01 AM 54.0670 -15.4990 284° West 464 534 36,000  Level FlightAware ADS-B
Wed 09:15:35 AM 54.0820 -15.6010 284° West 464 534 36,000  Level FlightAware ADS-B
Wed 09:16:23 AM 54.1030 -15.7460 284° West 464 534 36,000  Level FlightAware ADS-B
Wed 09:16:59 AM 54.1190 -15.8550 284° West 464 534 36,000  Level FlightAware ADS-B
Wed 09:17:47 AM 54.1400 -16.0000 284° West 464 534 36,000  Level FlightAware ADS-B
Wed 09:18:23 AM 54.1560 -16.1090 284° West 464 534 36,000  Level FlightAware ADS-B
Wed 09:21:00 AM 54.2455 -16.6481 286° West  Level Estimated
Wed 09:22:00 AM 54.2791 -16.8547 286° West  Level Estimated
Wed 09:23:00 AM 54.3124 -17.0617 285° West  Level Estimated
Wed 09:24:00 AM 54.3452 -17.2690 285° West  Level Estimated
Wed 09:25:00 AM 54.3778 -17.4766 285° West  Level Estimated
Wed 09:26:00 AM 54.4099 -17.6845 285° West  Level Estimated
Wed 09:27:00 AM 54.4417 -17.8928 285° West  Level Estimated
Wed 09:28:00 AM 54.4732 -18.1014 285° West  Level Estimated
Wed 09:29:00 AM 54.5043 -18.3103 284° West  Level Estimated
Wed 09:30:00 AM 54.5350 -18.5196 284° West  Level Estimated
Wed 09:31:00 AM 54.5654 -18.7291 284° West  Level Estimated
Wed 09:32:00 AM 54.5954 -18.9390 284° West  Level Estimated
Wed 09:33:00 AM 54.6250 -19.1492 284° West  Level Estimated
Wed 09:34:00 AM 54.6543 -19.3596 284° West  Level Estimated
Wed 09:34:00 AM 54.0000 -20.0000 284° West 460 529 36,000  Level ETMS Enhanced Traffic Management System
Wed 09:34:48 AM 54.0000 -20.0000 284° West 460 529 36,000  Level ETMS Enhanced Traffic Management System
Wed 09:35:00 AM 54.6832 -19.5704 283° West  Level Estimated
Wed 09:36:00 AM 54.7118 -19.7815 283° West  Level Estimated
Wed 09:37:00 AM 54.7399 -19.9928 283° West  Level Estimated
Wed 09:38:00 AM 54.7677 -20.2045 283° West  Level Estimated
Wed 09:39:00 AM 54.7952 -20.4164 283° West  Level Estimated
Wed 09:40:00 AM 54.1767 -21.2741 283° West 460 529 36,000  Level FlightAware Transoceanic
Wed 09:41:00 AM 54.2049 -21.4875 283° West 460 529 36,000  Level FlightAware Transoceanic
Wed 09:42:00 AM 54.2326 -21.7011 282° West 460 529 36,000  Level FlightAware Transoceanic
Wed 09:43:00 AM 54.2600 -21.9151 282° West 460 529 36,000  Level FlightAware Transoceanic
Wed 09:44:00 AM 54.2870 -22.1294 282° West 460 529 36,000  Level FlightAware Transoceanic
Wed 09:45:00 AM 54.3136 -22.3439 282° West 460 529 36,000  Level FlightAware Transoceanic
Wed 09:46:00 AM 54.3399 -22.5587 282° West 460 529 36,000  Level FlightAware Transoceanic
Wed 09:47:00 AM 54.3657 -22.7737 282° West 460 529 36,000  Level FlightAware Transoceanic
Wed 09:48:00 AM 54.3912 -22.9891 281° West 460 529 36,000  Level FlightAware Transoceanic
Wed 09:49:00 AM 54.4163 -23.2047 281° West 460 529 36,000  Level FlightAware Transoceanic
Wed 09:50:00 AM 54.4410 -23.4205 281° West 460 529 36,000  Level FlightAware Transoceanic
Wed 09:51:00 AM 54.4654 -23.6367 281° West 460 529 36,000  Level FlightAware Transoceanic
Wed 09:52:00 AM 54.4893 -23.8531 281° West 460 529 36,000  Level FlightAware Transoceanic
Wed 09:53:00 AM 54.5129 -24.0697 281° West 460 529 36,000  Level FlightAware Transoceanic
Wed 09:54:00 AM 54.5360 -24.2866 280° West 460 529 36,000  Level FlightAware Transoceanic
Wed 09:55:00 AM 54.5588 -24.5037 280° West 460 529 36,000  Level FlightAware Transoceanic
Wed 09:56:00 AM 54.5812 -24.7211 280° West 460 529 36,000  Level FlightAware Transoceanic
Wed 09:57:00 AM 54.6032 -24.9387 280° West 460 529 36,000  Level FlightAware Transoceanic
Wed 09:58:00 AM 54.6248 -25.1565 280° West 460 529 36,000  Level FlightAware Transoceanic
Wed 09:59:00 AM 54.6460 -25.3746 279° West 460 529 36,000  Level FlightAware Transoceanic
Wed 10:00:00 AM 54.6668 -25.5929 279° West 460 529 36,000  Level FlightAware Transoceanic
Wed 10:01:00 AM 54.6873 -25.8114 279° West 460 529 36,000  Level FlightAware Transoceanic
Wed 10:02:00 AM 54.7073 -26.0301 279° West 460 529 36,000  Level FlightAware Transoceanic
Wed 10:03:00 AM 54.7270 -26.2491 279° West 460 529 36,000  Level FlightAware Transoceanic
Wed 10:04:00 AM 54.7462 -26.4682 279° West 460 529 36,000  Level FlightAware Transoceanic
Wed 10:05:00 AM 54.7651 -26.6876 278° West 460 529 36,000  Level FlightAware Transoceanic
Wed 10:06:00 AM 54.7835 -26.9071 278° West 460 529 36,000  Level FlightAware Transoceanic
Wed 10:07:00 AM 54.8016 -27.1269 278° West 460 529 36,000  Level FlightAware Transoceanic
Wed 10:08:00 AM 54.8192 -27.3468 278° West 460 529 36,000  Level FlightAware Transoceanic
Wed 10:09:00 AM 54.8365 -27.5670 278° West 460 529 36,000  Level FlightAware Transoceanic
Wed 10:10:00 AM 54.8534 -27.7873 277° West 460 529 36,000  Level FlightAware Transoceanic
Wed 10:11:00 AM 54.8698 -28.0079 277° West 460 529 36,000  Level FlightAware Transoceanic
Wed 10:12:00 AM 54.8859 -28.2285 277° West 460 529 36,000  Level FlightAware Transoceanic
Wed 10:13:00 AM 54.9016 -28.4494 277° West 460 529 36,000  Level FlightAware Transoceanic
Wed 10:14:00 AM 54.9168 -28.6705 277° West 460 529 36,000  Level FlightAware Transoceanic
Wed 10:15:00 AM 54.9317 -28.8916 277° West 460 529 36,000  Level FlightAware Transoceanic
Wed 10:16:00 AM 54.9462 -29.1130 276° West 460 529 36,000  Level FlightAware Transoceanic
Wed 10:17:00 AM 54.9602 -29.3345 276° West 460 529 36,000  Level FlightAware Transoceanic
Wed 10:18:00 AM 54.9739 -29.5562 276° West 460 529 36,000  Level FlightAware Transoceanic
Wed 10:19:00 AM 54.9871 -29.7780 276° West 460 529 36,000  Level FlightAware Transoceanic
Wed 10:20:00 AM 54.9997 -29.9953 276° West  Level FlightAware Approximate
Wed 10:21:00 AM 55.0120 -30.2127 276° West  Level FlightAware Approximate
Wed 10:22:00 AM 55.0084 -30.2085 274° West  Level FlightAware Approximate
Wed 10:23:00 AM 55.0168 -30.4264 274° West  Level FlightAware Approximate
Wed 10:24:00 AM 55.0248 -30.6445 274° West  Level FlightAware Approximate
Wed 10:25:00 AM 55.0324 -30.8622 274° West  Level FlightAware Approximate
Wed 10:26:00 AM 55.0396 -31.0801 273° West  Level FlightAware Approximate
Wed 10:27:00 AM 55.0465 -31.2980 273° West  Level FlightAware Approximate
Wed 10:28:00 AM 55.0529 -31.5159 273° West  Level FlightAware Approximate
Wed 10:29:00 AM 55.0589 -31.7340 273° West  Level FlightAware Approximate
Wed 10:30:00 AM 55.0646 -31.9521 273° West  Level FlightAware Approximate
Wed 10:31:00 AM 55.0698 -32.1702 272° West  Level FlightAware Approximate
Wed 10:32:00 AM 55.0747 -32.3884 272° West  Level FlightAware Approximate
Wed 10:33:00 AM 55.0792 -32.6067 272° West  Level FlightAware Approximate
Wed 10:34:00 AM 55.0833 -32.8250 272° West  Level FlightAware Approximate
Wed 10:35:00 AM 55.0869 -33.0434 272° West  Level FlightAware Approximate
Wed 10:36:00 AM 55.0902 -33.2617 272° West  Level FlightAware Approximate
Wed 10:37:00 AM 55.0932 -33.4802 271° West  Level FlightAware Approximate
Wed 10:38:00 AM 55.0957 -33.6986 271° West  Level FlightAware Approximate
Wed 10:39:00 AM 55.0978 -33.9171 271° West  Level FlightAware Approximate
Wed 10:40:00 AM 55.0995 -34.1356 271° West  Level FlightAware Approximate
Wed 10:41:00 AM 55.1009 -34.3541 271° West  Level FlightAware Approximate
Wed 10:42:00 AM 55.1019 -34.5727 271° West  Level FlightAware Approximate
Wed 10:43:00 AM 55.1024 -34.7912 270° West  Level FlightAware Approximate
Wed 10:44:00 AM 55.1026 -35.0097 270° West  Level FlightAware Approximate
Wed 10:45:00 AM 55.1024 -35.2283 270° West  Level FlightAware Approximate
Wed 10:46:00 AM 55.1018 -35.4468 270° West  Level FlightAware Approximate
Wed 10:47:00 AM 55.1008 -35.6654 270° West  Level FlightAware Approximate
Wed 10:48:00 AM 55.0994 -35.8839 269° West  Level FlightAware Approximate
Wed 10:49:00 AM 55.0976 -36.1024 269° West  Level FlightAware Approximate
Wed 10:50:00 AM 55.0955 -36.3209 269° West  Level FlightAware Approximate
Wed 10:51:00 AM 55.0929 -36.5393 269° West  Level FlightAware Approximate
Wed 10:52:00 AM 55.0899 -36.7577 269° West  Level FlightAware Approximate
Wed 10:53:00 AM 55.0866 -36.9761 269° West  Level FlightAware Approximate
Wed 10:54:00 AM 55.0829 -37.1945 268° West  Level FlightAware Approximate
Wed 10:55:00 AM 55.0788 -37.4128 268° West  Level FlightAware Approximate
Wed 10:56:00 AM 55.0742 -37.6310 268° West  Level FlightAware Approximate
Wed 10:57:00 AM 55.0693 -37.8492 268° West  Level FlightAware Approximate
Wed 10:58:00 AM 55.0640 -38.0674 268° West  Level FlightAware Approximate
Wed 10:59:00 AM 55.0583 -38.2855 267° West  Level FlightAware Approximate
Wed 11:00:00 AM 55.0523 -38.5035 267° West  Level FlightAware Approximate
Wed 11:01:00 AM 55.0458 -38.7215 267° West  Level FlightAware Approximate
Wed 11:02:00 AM 55.0390 -38.9394 267° West  Level FlightAware Approximate
Wed 11:03:00 AM 55.0317 -39.1572 267° West  Level FlightAware Approximate
Wed 11:04:00 AM 55.0241 -39.3749 267° West  Level FlightAware Approximate
Wed 11:05:00 AM 55.0161 -39.5925 266° West  Level FlightAware Approximate
Wed 11:06:00 AM 55.0077 -39.8101 266° West  Level FlightAware Approximate
Wed 11:07:00 AM 54.9960 -40.0267 255° West  Level FlightAware Approximate
Wed 11:08:00 AM 54.9640 -40.2374 255° West  Level FlightAware Approximate
Wed 11:09:00 AM 54.9317 -40.4477 255° West  Level FlightAware Approximate
Wed 11:10:00 AM 54.8991 -40.6572 255° West  Level FlightAware Approximate
Wed 11:11:00 AM 54.8661 -40.8665 255° West  Level FlightAware Approximate
Wed 11:12:00 AM 54.8328 -41.0754 255° West  Level FlightAware Approximate
Wed 11:13:00 AM 54.7991 -41.2839 254° West  Level FlightAware Approximate
Wed 11:14:00 AM 54.7651 -41.4921 254° West  Level FlightAware Approximate
Wed 11:15:00 AM 54.7307 -41.6999 254° West  Level FlightAware Approximate
Wed 11:16:00 AM 54.6959 -41.9074 254° West  Level FlightAware Approximate
Wed 11:17:00 AM 54.6608 -42.1145 254° West  Level FlightAware Approximate
Wed 11:18:00 AM 54.6253 -42.3213 254° West  Level FlightAware Approximate
Wed 11:19:00 AM 54.5895 -42.5276 253° West  Level FlightAware Approximate
Wed 11:20:00 AM 54.5533 -42.7337 253° West  Level FlightAware Approximate
Wed 11:21:00 AM 54.5168 -42.9394 253° West  Level FlightAware Approximate
Wed 11:22:00 AM 54.4800 -43.1446 253° West  Level FlightAware Approximate
Wed 11:23:00 AM 54.4428 -43.3496 253° West  Level FlightAware Approximate
Wed 11:24:00 AM 54.4052 -43.5541 253° West  Level FlightAware Approximate
Wed 11:25:00 AM 54.3673 -43.7583 252° West  Level FlightAware Approximate
Wed 11:26:00 AM 54.3291 -43.9621 252° West  Level FlightAware Approximate
Wed 11:27:00 AM 54.2905 -44.1655 252° West  Level FlightAware Approximate
Wed 11:28:00 AM 54.2515 -44.3686 252° West  Level FlightAware Approximate
Wed 11:29:00 AM 54.2123 -44.5712 252° West  Level FlightAware Approximate
Wed 11:30:00 AM 54.1727 -44.7735 252° West  Level FlightAware Approximate
Wed 11:31:00 AM 54.1327 -44.9754 251° West  Level FlightAware Approximate
Wed 11:32:00 AM 54.0924 -45.1769 251° West  Level FlightAware Approximate
Wed 11:33:00 AM 54.0518 -45.3779 251° West  Level FlightAware Approximate
Wed 11:34:00 AM 54.0108 -45.5787 251° West  Level FlightAware Approximate
Wed 11:35:00 AM 53.9696 -45.7789 251° West  Level FlightAware Approximate
Wed 11:36:00 AM 53.9279 -45.9789 251° West  Level FlightAware Approximate
Wed 11:37:00 AM 53.8860 -46.1783 250° West  Level FlightAware Approximate
Wed 11:38:00 AM 53.8437 -46.3774 250° West  Level FlightAware Approximate
Wed 11:39:00 AM 53.8011 -46.5761 250° West  Level FlightAware Approximate
Wed 11:40:00 AM 53.7582 -46.7744 250° West  Level FlightAware Approximate
Wed 11:41:00 AM 53.7149 -46.9723 250° West  Level FlightAware Approximate
Wed 11:42:00 AM 53.6713 -47.1698 250° West  Level FlightAware Approximate
Wed 11:43:00 AM 53.6274 -47.3669 249° West  Level FlightAware Approximate
Wed 11:44:00 AM 53.5831 -47.5635 249° West  Level FlightAware Approximate
Wed 11:45:00 AM 53.5386 -47.7598 249° West  Level FlightAware Approximate
Wed 11:46:00 AM 53.4937 -47.9556 249° West  Level FlightAware Approximate
Wed 11:47:00 AM 53.4485 -48.1510 249° West  Level FlightAware Approximate
Wed 11:48:00 AM 53.4030 -48.3460 249° West  Level FlightAware Approximate
Wed 11:49:00 AM 53.3572 -48.5406 249° West  Level FlightAware Approximate
Wed 11:50:00 AM 53.3110 -48.7348 248° West  Level FlightAware Approximate
Wed 11:51:00 AM 53.2645 -48.9285 248° West  Level FlightAware Approximate
Wed 11:52:00 AM 53.2178 -49.1218 248° West  Level FlightAware Approximate
Wed 11:53:00 AM 53.1707 -49.3147 248° West  Level FlightAware Approximate
Wed 11:54:00 AM 53.1233 -49.5072 248° West  Level FlightAware Approximate
Wed 11:55:00 AM 53.0756 -49.6993 248° West  Level FlightAware Approximate
Wed 11:56:00 AM 53.0275 -49.8909 247° West  Level FlightAware Approximate
Wed 11:57:00 AM 52.9804 -50.0829 249° West  Level FlightAware Approximate
Wed 11:58:00 AM 52.9347 -50.2756 249° West  Level FlightAware Approximate
Wed 11:59:00 AM 52.8886 -50.4679 248° West  Level FlightAware Approximate
Wed 12:00:00 PM 52.8422 -50.6599 248° West  Level FlightAware Approximate
Wed 12:01:00 PM 52.7955 -50.8513 248° West  Level FlightAware Approximate
Wed 12:02:00 PM 52.7485 -51.0424 248° West  Level FlightAware Approximate
Wed 12:03:00 PM 52.7012 -51.2331 248° West  Level FlightAware Approximate
Wed 12:04:00 PM 52.6536 -51.4233 248° West  Level FlightAware Approximate
Wed 12:05:00 PM 52.6057 -51.6132 247° West  Level FlightAware Approximate
Wed 12:05:12 PM 52.4667 -52.2833 247° West 490 564 36,000  Level Gander Center
Wed 12:06:00 PM 52.5575 -51.8026 247° West  Level FlightAware Approximate
Wed 12:06:12 PM 52.4333 -52.4833 255° West 490 564 36,000  Level Gander Center
Wed 12:07:00 PM 52.5090 -51.9916 247° West  Level FlightAware Approximate
Wed 12:07:12 PM 52.3667 -52.7167 245° Southwest 490 564 36,000  Level Gander Center
Wed 12:08:00 PM 52.4601 -52.1802 247° West  Level FlightAware Approximate
Wed 12:08:12 PM 52.3333 -52.9000 253° West 490 564 36,000  Level Gander Center
Wed 12:09:00 PM 52.4110 -52.3684 247° West  Level FlightAware Approximate
Wed 12:09:12 PM 52.2833 -53.1333 251° West 490 564 36,000  Level Gander Center
Wed 12:10:00 PM 52.3616 -52.5561 247° West  Level FlightAware Approximate
Wed 12:10:12 PM 52.2500 -53.3167 254° West 490 564 36,000  Level Gander Center
Wed 12:11:12 PM 52.2167 -53.5500 257° West 480 552 36,000  Level Gander Center
Wed 12:12:12 PM 52.1667 -53.7500 248° West 480 552 36,000  Level Gander Center
Wed 12:13:12 PM 52.1333 -53.9667 256° West 480 552 36,000  Level Gander Center
Wed 12:14:12 PM 52.1000 -54.1667 255° West 470 541 36,000  Level Gander Center
Wed 12:15:12 PM 52.0500 -54.3667 248° West 480 552 36,000  Level Gander Center
Wed 12:16:12 PM 52.0000 -54.5667 248° West 470 541 36,000  Level Gander Center
Wed 12:17:12 PM 51.9667 -54.7667 255° West 470 541 36,000  Level Gander Center
Wed 12:18:12 PM 51.9167 -54.9833 250° West 460 529 36,000  Level Gander Center
Wed 12:19:12 PM 51.8833 -55.1500 252° West 450 518 36,000  Level Gander Center
Wed 12:20:12 PM 51.8500 -55.3833 257° West 460 529 36,000  Level Gander Center
Wed 12:21:12 PM 51.8000 -55.5500 244° Southwest 450 518 36,000  Level Gander Center
Wed 12:22:12 PM 51.7667 -55.7333 254° West 440 506 36,000  Level Gander Center
Wed 12:23:12 PM 51.7333 -55.9333 255° West 450 518 36,000  Level Gander Center
Wed 12:24:12 PM 51.7000 -56.1000 252° West 430 495 36,000  Level Gander Center
Wed 12:25:12 PM 51.6500 -56.3167 250° West 450 518 36,000 100 Level Gander Center
Wed 12:26:12 PM 51.6167 -56.4833 252° West 460 529 36,200 300 Climbing Gander Center
Wed 12:27:12 PM 51.5667 -56.6833 248° West 430 495 36,600 400 Climbing Gander Center
Wed 12:28:12 PM 51.5167 -56.8667 246° West 430 495 37,000 400 Climbing Gander Center
Wed 12:29:12 PM 51.4833 -57.0333 252° West 420 483 37,400 450 Climbing Gander Center
Wed 12:30:12 PM 51.4333 -57.2333 248° West 440 506 37,900 300 Climbing Gander Center
Wed 12:31:12 PM 51.4000 -57.4167 254° West 450 518 38,000 50 Climbing Gander Center
Wed 12:32:12 PM 51.3500 -57.6167 248° West 450 518 38,000  Level Gander Center
Wed 12:33:12 PM 51.3167 -57.8000 254° West 450 518 38,000  Level Gander Center
Wed 12:34:12 PM 51.2833 -58.0000 255° West 440 506 38,000  Level Gander Center
Wed 12:35:12 PM 51.2333 -58.1500 242° Southwest 450 518 38,000  Level Gander Center
Wed 12:36:12 PM 51.1833 -58.3500 248° West 450 518 38,000  Level Gander Center
Wed 12:37:12 PM 51.1333 -58.5333 247° West 440 506 38,000  Level Gander Center
Wed 12:38:12 PM 51.1000 -58.7333 255° West 450 518 38,000  Level Gander Center
Wed 12:39:12 PM 51.0500 -58.9167 247° West 440 506 38,000  Level Gander Center
Wed 12:40:12 PM 51.0000 -59.0833 245° Southwest 440 506 38,000  Level Gander Center
Wed 12:41:12 PM 50.9500 -59.2667 247° West 440 506 38,000  Level Gander Center
Wed 12:42:12 PM 50.9000 -59.4500 247° West 440 506 38,000  Level Gander Center
Wed 12:43:12 PM 50.8667 -59.6333 254° West 440 506 38,000  Level Gander Center
Wed 12:44:12 PM 50.8333 -59.8333 255° West 450 518 38,000  Level Gander Center
Wed 12:45:12 PM 50.7833 -60.0167 247° West 450 518 38,000  Level Gander Center
Wed 12:46:12 PM 50.7333 -60.1667 242° Southwest 450 518 38,000  Level Gander Center
Wed 12:47:12 PM 50.6833 -60.3667 249° West 450 518 38,000  Level Gander Center
Wed 12:48:12 PM 50.6333 -60.5500 247° West 440 506 38,000  Level Gander Center
Wed 12:49:12 PM 50.5833 -60.7333 247° West 440 506 38,000  Level Gander Center
Wed 12:50:12 PM 50.5333 -60.9167 247° West 440 506 38,000  Level Gander Center
Wed 12:51:12 PM 50.4833 -61.0667 242° Southwest 440 506 38,000  Level Gander Center
Wed 12:52:12 PM 50.4333 -61.2500 247° West 440 506 38,000  Level Gander Center
Wed 12:53:12 PM 50.3833 -61.4333 247° West 440 506 38,000  Level Gander Center
Wed 12:54:12 PM 50.3333 -61.6167 247° West 440 506 38,000  Level Gander Center
Wed 12:55:12 PM 50.3000 -61.8000 254° West 440 506 38,000  Level Gander Center
Wed 12:56:12 PM 50.2500 -61.9667 245° Southwest 450 518 38,000  Level Gander Center
Wed 12:57:12 PM 50.2000 -62.1500 247° West 440 506 38,000  Level Gander Center
Wed 12:58:12 PM 50.1500 -62.3333 247° West 440 506 38,000  Level Gander Center
Wed 12:59:12 PM 50.1000 -62.4833 243° Southwest 450 518 38,000  Level Gander Center
Wed 01:00:12 PM 50.0500 -62.6833 249° West 440 506 38,000  Level Gander Center
Wed 01:01:12 PM 50.0000 -62.8500 245° Southwest 440 506 38,000  Level Gander Center
Wed 01:02:12 PM 49.9333 -63.0167 238° Southwest 440 506 38,000  Level Gander Center
Wed 01:03:12 PM 49.8833 -63.2000 247° West 450 518 38,000  Level Gander Center
Wed 01:04:12 PM 49.8500 -63.3500 251° West 440 506 38,000  Level Gander Center
Wed 01:05:12 PM 49.8000 -63.5667 250° West 440 506 38,000  Level Gander Center
Wed 01:06:12 PM 49.7500 -63.7167 243° Southwest 440 506 38,000  Level Gander Center
Wed 01:07:12 PM 49.6833 -63.9000 241° Southwest 440 506 38,000  Level Gander Center
Wed 01:08:12 PM 49.6333 -64.0667 245° Southwest 440 506 38,000  Level Gander Center
Wed 01:09:12 PM 49.5833 -64.2500 247° West 440 506 38,000  Level Gander Center
Wed 01:10:12 PM 49.5333 -64.4000 243° Southwest 440 506 38,000  Level Gander Center
Wed 01:11:12 PM 49.4667 -64.6000 243° Southwest 440 506 38,000  Level Gander Center
Wed 01:12:12 PM 49.4167 -64.7500 243° Southwest 440 506 38,000  Level Gander Center
Wed 01:13:12 PM 49.3833 -64.9333 254° West 440 506 38,000  Level Gander Center
Wed 01:14:12 PM 49.3000 -65.1000 233° Southwest 440 506 38,000  Level Gander Center
Wed 01:15:12 PM 49.2667 -65.2500 251° West 440 506 38,000  Level Gander Center
Wed 01:16:12 PM 49.2000 -65.4333 241° Southwest 440 506 38,000  Level Gander Center
Wed 01:17:12 PM 49.1500 -65.6000 245° Southwest 440 506 38,000  Level Gander Center
Wed 01:18:12 PM 49.1000 -65.7833 247° West 440 506 38,000  Level Gander Center
Wed 01:19:12 PM 49.0333 -65.9167 233° Southwest 440 506 38,000  Level Gander Center
Wed 01:20:12 PM 48.9833 -66.1000 247° West 440 506 38,000  Level Gander Center
Wed 01:21:12 PM 48.9167 -66.2667 239° Southwest 440 506 38,000  Level Gander Center
Wed 01:22:25 PM 48.8667 -66.4667 249° West 440 506 38,000  Level Moncton Center
Wed 01:23:25 PM 48.8167 -66.6333 246° West 440 506 38,000  Level Moncton Center
Wed 01:24:25 PM 48.7500 -66.8167 241° Southwest 440 506 38,000  Level Moncton Center
Wed 01:25:25 PM 48.7000 -66.9667 243° Southwest 440 506 38,000  Level Moncton Center
Wed 01:26:25 PM 48.6333 -67.1333 239° Southwest 440 506 38,000  Level Moncton Center
Wed 01:27:25 PM 48.5833 -67.2833 243° Southwest 440 506 38,000  Level Moncton Center
Wed 01:28:25 PM 48.5333 -67.4500 246° West 440 506 38,000  Level Moncton Center
Wed 01:29:25 PM 48.4667 -67.6000 236° Southwest 440 506 38,000  Level Moncton Center
Wed 01:34:56 PM 48.1490 -68.4970 236° Southwest 448 516 38,000  Level FlightAware ADS-B
Wed 01:35:49 PM 48.0840 -68.6150 231° Southwest 448 516 38,000  Level FlightAware ADS-B
Wed 01:36:42 PM 48.0120 -68.7510 232° Southwest 449 517 38,000  Level FlightAware ADS-B
Wed 01:37:33 PM 47.9490 -68.8680 231° Southwest 449 517 38,000  Level FlightAware ADS-B
Wed 01:38:12 PM 47.8980 -68.9660 232° Southwest 450 518 38,000  Level FlightAware ADS-B
Wed 01:38:57 PM 47.8340 -69.0860 232° Southwest 450 518 38,000  Level FlightAware ADS-B
Wed 01:39:54 PM 47.7700 -69.2090 232° Southwest 451 519 38,000  Level FlightAware ADS-B
Wed 01:40:37 PM 47.7100 -69.3230 232° Southwest 449 517 38,000  Level FlightAware ADS-B
Wed 01:41:19 PM 47.6550 -69.4280 232° Southwest 446 513 38,000  Level FlightAware ADS-B
Wed 01:41:59 PM 47.6050 -69.5260 233° Southwest 446 513 38,000  Level FlightAware ADS-B
Wed 01:42:44 PM 47.5460 -69.6390 232° Southwest 446 513 38,000  Level FlightAware ADS-B
Wed 01:43:29 PM 47.5020 -69.7550 241° Southwest 437 503 38,000  Level FlightAware ADS-B
Wed 01:44:09 PM 47.4790 -69.8700 254° West 434 499 38,000  Level FlightAware ADS-B
Wed 01:44:49 PM 47.4590 -69.9850 256° West 433 498 38,000  Level FlightAware ADS-B
Wed 01:45:24 PM 47.4430 -70.0740 255° West 431 496 38,000  Level FlightAware ADS-B
Wed 01:46:09 PM 47.4170 -70.2130 255° West 429 494 38,000  Level FlightAware ADS-B
Wed 01:46:49 PM 47.3970 -70.3260 255° West 427 491 38,000  Level FlightAware ADS-B
Wed 01:47:34 PM 47.3750 -70.4470 255° West 427 491 38,000  Level FlightAware ADS-B
Wed 01:48:14 PM 47.3540 -70.5620 255° West 427 491 38,000  Level FlightAware ADS-B
Wed 01:48:54 PM 47.3330 -70.6710 254° West 424 488 38,000  Level FlightAware ADS-B
Wed 01:49:34 PM 47.3120 -70.7860 255° West 423 487 38,000  Level FlightAware ADS-B
Wed 01:50:19 PM 47.2900 -70.9040 255° West 424 488 38,000  Level FlightAware ADS-B
Wed 01:50:59 PM 47.2680 -71.0150 254° West 425 489 38,000  Level FlightAware ADS-B
Wed 01:51:39 PM 47.2480 -71.1220 255° West 425 489 38,000  Level FlightAware ADS-B
Wed 01:52:24 PM 47.2220 -71.2580 254° West 426 490 38,000  Level FlightAware ADS-B
Wed 01:53:09 PM 47.1990 -71.3800 255° West 426 490 38,000  Level FlightAware ADS-B
Wed 01:53:49 PM 47.1770 -71.4920 254° West 425 489 38,000  Level FlightAware ADS-B
Wed 01:54:29 PM 47.1560 -71.5970 254° West 426 490 38,000  Level FlightAware ADS-B
Wed 01:55:13 PM 47.1330 -71.7160 254° West 427 491 38,000  Level FlightAware ADS-B
Wed 01:55:55 PM 47.1080 -71.8420 254° West 428 493 38,000  Level FlightAware ADS-B
Wed 01:56:40 PM 47.0830 -71.9690 254° West 430 495 38,000  Level FlightAware ADS-B
Wed 01:57:44 PM 47.0470 -72.1480 254° West 429 494 38,000  Level FlightAware ADS-B
Wed 01:58:29 PM 47.0240 -72.2620 254° West 429 494 38,000  Level FlightAware ADS-B
Wed 01:59:11 PM 46.9980 -72.3890 253° West 430 495 38,000  Level FlightAware ADS-B
Wed 01:59:43 PM 46.9800 -72.4780 254° West 431 496 38,000  Level FlightAware ADS-B
Wed 02:00:24 PM 46.9570 -72.5880 253° West 431 496 38,000  Level FlightAware ADS-B
Wed 02:01:03 PM 46.9340 -72.7010 253° West 431 496 38,000  Level FlightAware ADS-B
Wed 02:01:41 PM 46.9120 -72.8070 253° West 430 495 38,000  Level FlightAware ADS-B
Wed 02:02:19 PM 46.8890 -72.9160 253° West 430 495 38,000  Level FlightAware ADS-B
Wed 02:03:01 PM 46.8650 -73.0310 253° West 432 497 38,000  Level FlightAware ADS-B
Wed 02:03:37 PM 46.8440 -73.1320 253° West 431 496 38,000  Level FlightAware ADS-B
Wed 02:04:19 PM 46.8200 -73.2470 253° West 430 495 38,000  Level FlightAware ADS-B
Wed 02:05:02 PM 46.8170 -73.3620 268° West 424 488 38,000  Level FlightAware ADS-B
Wed 02:05:45 PM 46.8280 -73.4920 277° West 424 488 38,000  Level FlightAware ADS-B
Wed 02:06:25 PM 46.8380 -73.6070 277° West 424 488 38,000  Level FlightAware ADS-B
Wed 02:07:07 PM 46.8480 -73.7230 277° West 424 488 38,000  Level FlightAware ADS-B
Wed 02:07:49 PM 46.8580 -73.8440 277° West 425 489 38,000  Level FlightAware ADS-B
Wed 02:08:41 PM 46.8700 -73.9910 277° West 426 490 38,000  Level FlightAware ADS-B
Wed 02:09:19 PM 46.8790 -74.1010 277° West 426 490 38,000  Level FlightAware ADS-B
Wed 02:10:06 PM 46.8890 -74.2240 277° West 426 490 38,000  Level FlightAware ADS-B
Wed 02:10:35 PM 46.8970 -74.3150 277° West 425 489 38,000  Level FlightAware ADS-B
Wed 02:11:38 PM 46.9100 -74.4600 278° West 426 490 38,000  Level FlightAware ADS-B
Wed 02:12:26 PM 46.9200 -74.6270 275° West 425 489 38,000  Level FlightAware ADS-B
Wed 02:13:06 PM 46.9260 -74.7440 274° West 424 488 38,000  Level FlightAware ADS-B
Wed 02:13:45 PM 46.9330 -74.8580 275° West 422 486 38,000  Level FlightAware ADS-B
Wed 02:14:30 PM 46.9390 -74.9850 274° West 421 484 38,000  Level FlightAware ADS-B
Wed 02:15:11 PM 46.9360 -75.0990 268° West 422 486 38,000  Level FlightAware ADS-B
Wed 02:16:06 PM 46.9310 -75.2530 267° West 423 487 38,000  Level FlightAware ADS-B
Wed 02:16:46 PM 46.9270 -75.3610 267° West 423 487 38,000  Level FlightAware ADS-B
Wed 02:17:22 PM 46.9230 -75.4640 267° West 423 487 38,000  Level FlightAware ADS-B
Wed 02:18:22 PM 46.9150 -75.6440 266° West 423 487 38,000  Level FlightAware ADS-B
Wed 02:18:59 PM 46.9020 -75.7470 260° West 424 488 38,000  Level FlightAware ADS-B
Wed 02:19:42 PM 46.8880 -75.8590 260° West 426 490 38,000  Level FlightAware ADS-B
Wed 02:20:25 PM 46.8650 -75.9930 256° West 429 494 38,000  Level FlightAware ADS-B
Wed 02:21:22 PM 46.8250 -76.1360 248° West 430 495 38,000  Level FlightAware ADS-B
Wed 02:21:57 PM 46.7970 -76.2300 247° West 38,000  Level FlightAware ADS-B
Wed 02:22:47 PM 46.7520 -76.3620 244° Southwest 429 494 38,000  Level FlightAware ADS-B
Wed 02:23:25 PM 46.7250 -76.4470 245° Southwest 429 494 38,000  Level FlightAware ADS-B
Wed 02:24:23 PM 46.6670 -76.5990 241° Southwest 429 494 38,000  Level FlightAware ADS-B
Wed 02:25:03 PM 46.6160 -76.7110 236° Southwest 437 503 38,000  Level FlightAware ADS-B
Wed 02:25:47 PM 46.5720 -76.8160 239° Southwest 438 504 38,000  Level FlightAware ADS-B
Wed 02:26:23 PM 46.5310 -76.9140 239° Southwest 441 507 38,000  Level FlightAware ADS-B
Wed 02:27:15 PM 46.4820 -77.0280 238° Southwest 441 507 38,000  Level FlightAware ADS-B
Wed 02:28:22 PM 46.4050 -77.2080 238° Southwest 445 512 38,000  Level FlightAware ADS-B
Wed 02:29:12 PM 46.3520 -77.3350 239° Southwest 444 511 38,000  Level FlightAware ADS-B
Wed 02:29:52 PM 46.3190 -77.4430 246° West 442 509 38,000  Level FlightAware ADS-B
Wed 02:30:52 PM 46.2750 -77.5990 248° West 442 509 38,000  Level FlightAware ADS-B
Wed 02:31:24 PM 46.2470 -77.6990 248° West 442 509 38,000  Level FlightAware ADS-B
Wed 02:32:04 PM 46.2160 -77.8090 248° West 442 509 38,000  Level FlightAware ADS-B
Wed 02:32:47 PM 46.1820 -77.9280 248° West 441 507 38,000  Level FlightAware ADS-B
Wed 02:33:31 PM 46.1490 -78.0460 248° West 441 507 38,000  Level FlightAware ADS-B
Wed 02:34:15 PM 46.1150 -78.1660 248° West 441 507 38,000  Level FlightAware ADS-B
Wed 02:34:56 PM 46.0830 -78.2750 247° West 440 506 38,000  Level FlightAware ADS-B
Wed 02:35:35 PM 46.0530 -78.3810 248° West 442 509 38,000  Level FlightAware ADS-B
Wed 02:36:17 PM 46.0190 -78.4960 247° West 442 509 38,000  Level FlightAware ADS-B
Wed 02:36:53 PM 45.9910 -78.5930 247° West 445 512 38,000  Level FlightAware ADS-B
Wed 02:37:34 PM 45.9590 -78.7030 247° West 446 513 38,000  Level FlightAware ADS-B
Wed 02:38:15 PM 45.9260 -78.8160 247° West 445 512 38,000  Level FlightAware ADS-B
Wed 02:38:55 PM 45.8940 -78.9240 247° West 447 514 38,000  Level FlightAware ADS-B
Wed 02:39:35 PM 45.8610 -79.0350 247° West 446 513 38,000  Level FlightAware ADS-B
Wed 02:40:15 PM 45.8290 -79.1430 247° West 444 511 38,000  Level FlightAware ADS-B
Wed 02:41:00 PM 45.7930 -79.2640 247° West 444 511 38,000  Level FlightAware ADS-B
Wed 02:41:43 PM 45.7570 -79.3800 246° West 444 511 38,000  Level FlightAware ADS-B
Wed 02:42:24 PM 45.7250 -79.4900 247° West 444 511 38,000  Level FlightAware ADS-B
Wed 02:43:07 PM 45.6890 -79.6070 246° West 443 510 38,000  Level FlightAware ADS-B
Wed 02:43:47 PM 45.6570 -79.7120 246° West 443 510 38,000  Level FlightAware ADS-B
Wed 02:44:29 PM 45.6220 -79.8260 246° West 444 511 38,000  Level FlightAware ADS-B
Wed 02:45:07 PM 45.5910 -79.9270 246° West 444 511 38,000  Level FlightAware ADS-B
Wed 02:45:53 PM 45.5530 -80.0500 246° West 444 511 38,000  Level FlightAware ADS-B
Wed 02:46:37 PM 45.5170 -80.1680 247° West 443 510 38,000  Level FlightAware ADS-B
Wed 02:47:17 PM 45.4850 -80.2690 246° West 442 509 38,000  Level FlightAware ADS-B
Wed 02:47:57 PM 45.4540 -80.3670 246° West 442 509 38,000  Level FlightAware ADS-B
Wed 02:48:42 PM 45.4150 -80.4910 246° West 441 507 38,000  Level FlightAware ADS-B
Wed 02:49:22 PM 45.3820 -80.5990 247° West 441 507 38,000  Level FlightAware ADS-B
Wed 02:50:02 PM 45.3490 -80.7010 245° Southwest 441 507 38,000  Level FlightAware ADS-B
Wed 02:50:32 PM 45.3230 -80.7820 245° Southwest 441 507 38,000  Level FlightAware ADS-B
Wed 02:51:22 PM 45.2840 -80.9070 246° West 441 507 38,000  Level FlightAware ADS-B
Wed 02:52:02 PM 45.2480 -81.0180 245° Southwest 441 507 38,000  Level FlightAware ADS-B
Wed 02:52:37 PM 45.2180 -81.1100 245° Southwest 441 507 38,000  Level FlightAware ADS-B
Wed 02:53:17 PM 45.1830 -81.2190 246° West 442 509 38,000  Level FlightAware ADS-B
Wed 02:53:57 PM 45.1500 -81.3210 245° Southwest 442 509 38,000  Level FlightAware ADS-B
Wed 02:54:45 PM 45.1060 -81.4570 245° Southwest 442 509 38,000  Level FlightAware ADS-B
Wed 02:55:26 PM 45.0710 -81.5620 245° Southwest 442 509 38,000  Level FlightAware ADS-B
Wed 02:56:07 PM 45.0360 -81.6700 245° Southwest 444 511 38,000  Level FlightAware ADS-B
Wed 02:56:51 PM 44.9970 -81.7870 245° Southwest 445 512 38,000  Level FlightAware ADS-B
Wed 02:57:31 PM 44.9630 -81.8900 245° Southwest 446 513 38,000  Level FlightAware ADS-B
Wed 02:58:15 PM 44.9250 -82.0040 245° Southwest 447 514 38,000  Level FlightAware ADS-B
Wed 02:58:55 PM 44.8890 -82.1130 245° Southwest 447 514 38,000  Level FlightAware ADS-B
Wed 02:59:39 PM 44.8500 -82.2290 245° Southwest 447 514 38,000  Level FlightAware ADS-B
Wed 03:00:27 PM 44.8000 -82.3333 245° Southwest 440 506 38,000  Level Toronto Center
Wed 03:01:27 PM 44.7333 -82.5000 241° Southwest 450 518 38,000  Level Toronto Center
Wed 03:02:27 PM 44.6833 -82.6500 245° Southwest 450 518 38,000 -61 Level Toronto Center
Wed 03:03:05 PM 44.6622 -82.7361 251° West 445 512 37,900 -120 Descending Minneapolis Center
Wed 03:04:07 PM 44.6039 -82.8908 242° Southwest 448 516 37,800 -399 Descending Minneapolis Center
Wed 03:09:21 PM 44.3070 -83.6740 242° Southwest 454 522 35,400 -426 Descending FlightAware ADS-B
Wed 03:10:13 PM 44.2540 -83.8090 241° Southwest 455 524 35,200 -246 Descending FlightAware ADS-B
Wed 03:11:23 PM 44.1880 -83.9800 242° Southwest 455 524 34,900 -170 Descending FlightAware ADS-B
Wed 03:11:59 PM 44.1560 -84.0590 241° Southwest 455 524 34,900  Level FlightAware ADS-B
Wed 03:12:45 PM 44.1160 -84.1590 241° Southwest 455 524 34,900  Level FlightAware ADS-B
Wed 03:13:35 PM 44.0730 -84.2680 241° Southwest 455 524 34,900  Level FlightAware ADS-B
Wed 03:14:24 PM 44.0310 -84.3750 241° Southwest 455 524 34,900 -1,159 Level FlightAware ADS-B
Wed 03:15:03 PM 43.9380 -84.6140 242° Southwest 470 541 33,200 -1,357 Descending FlightAware ADS-B
Wed 03:15:48 PM 43.8950 -84.7220 241° Southwest 470 541 33,000 -297 Descending FlightAware ADS-B
Wed 03:16:44 PM 43.8340 -84.8700 240° Southwest 471 542 32,700 -194 Descending FlightAware ADS-B
Wed 03:17:21 PM 43.8000 -84.9520 240° Southwest 471 542 32,700 -390 Level FlightAware ADS-B
Wed 03:18:01 PM 43.7520 -85.0740 241° Southwest 475 547 32,200 -337 Descending FlightAware ADS-B
Wed 03:18:50 PM 43.7060 -85.1840 240° Southwest 475 547 32,200 -143 Level FlightAware ADS-B
Wed 03:19:25 PM 43.6090 -85.2430 204° Southwest 491 565 32,000 -117 Descending FlightAware ADS-B
Wed 03:20:33 PM 43.4720 -85.2850 193° South 493 567 32,000  Level FlightAware ADS-B
Wed 03:22:26 PM 43.2740 -85.3660 197° South 493 567 32,000 -1,059 Level FlightAware ADS-B
Wed 03:23:06 PM 43.2000 -85.5900 246° West 471 542 29,300 -2,692 Descending FlightAware ADS-B
Wed 03:23:44 PM 43.1380 -85.6670 222° Southwest 459 528 28,500 -1,482 Descending FlightAware ADS-B
Wed 03:24:31 PM 43.0680 -85.7540 222° Southwest 446 513 27,200 -1,846 Descending FlightAware ADS-B
Wed 03:25:15 PM 43.0000 -85.8380 222° Southwest 435 501 25,700 -1,880 Descending FlightAware ADS-B
Wed 03:25:54 PM 42.9420 -85.9090 222° Southwest 418 481 24,600 -1,875 Descending FlightAware ADS-B
Wed 03:26:35 PM 42.8830 -85.9810 222° Southwest 409 471 23,200 -2,143 Descending FlightAware ADS-B
Wed 03:27:18 PM 42.8250 -86.0520 222° Southwest 405 466 21,600 -2,188 Descending FlightAware ADS-B
Wed 03:28:00 PM 42.7660 -86.1250 222° Southwest 402 463 20,100 -1,116 Descending FlightAware ADS-B
Wed 03:28:44 PM 42.7050 -86.1990 222° Southwest 402 463 20,000 -74 Descending FlightAware ADS-B
Wed 03:29:21 PM 42.6570 -86.2630 224° Southwest 384 442 20,000  Level FlightAware ADS-B
Wed 03:30:05 PM 42.6290 -86.3580 248° West 371 427 20,000 -494 Level FlightAware ADS-B
Wed 03:30:46 PM 42.6120 -86.4500 256° West 366 421 19,300 -1,482 Descending FlightAware ADS-B
Wed 03:31:30 PM 42.5940 -86.5480 256° West 357 411 17,900 -1,952 Descending FlightAware ADS-B
Wed 03:32:09 PM 42.5790 -86.6280 256° West 354 407 16,600 -1,500 Descending FlightAware ADS-B
Wed 03:32:50 PM 42.5610 -86.7180 255° West 331 381 15,900 -929 Descending FlightAware ADS-B
Wed 03:33:33 PM 42.5450 -86.7970 255° West 305 351 15,300 -1,724 Descending FlightAware ADS-B
Wed 03:34:17 PM 42.5670 -86.8740 291° West 299 344 13,400 -2,475 Descending FlightAware ADS-B
Wed 03:34:53 PM 42.5890 -86.9320 297° West 296 341 12,000 -2,087 Descending FlightAware ADS-B
Wed 03:35:49 PM 42.5900 -87.0300 271° West 298 343 10,200 -1,750 Descending FlightAware ADS-B
Wed 03:36:05 PM 42.5720 -87.0450 212° Southwest 301 346 9,900 -682 Descending FlightAware ADS-B
Wed 03:36:33 PM 42.5340 -87.0590 195° South 300 345 9,700 -667 Descending FlightAware ADS-B
Wed 03:36:59 PM 42.4990 -87.0710 194° South 298 343 9,300 -1,053 Descending FlightAware ADS-B
Wed 03:37:30 PM 42.4640 -87.1000 211° Southwest 291 335 8,700 -837 Descending FlightAware ADS-B
Wed 03:37:42 PM 42.4550 -87.1180 236° Southwest 285 328 8,700  Level FlightAware ADS-B
Wed 03:37:57 PM 42.4470 -87.1430 247° West 285 328 8,700  Level FlightAware ADS-B
Wed 03:38:19 PM 42.4370 -87.1800 250° West 286 329 8,700  Level FlightAware ADS-B
Wed 03:38:35 PM 42.4290 -87.2070 248° West 285 328 8,700  Level FlightAware ADS-B
Wed 03:38:49 PM 42.4210 -87.2270 242° Southwest 287 330 8,700  Level FlightAware ADS-B
Wed 03:39:18 PM 42.3860 -87.2500 206° Southwest 294 338 8,700  Level FlightAware ADS-B
Wed 03:39:46 PM 42.3470 -87.2460 176° South 297 342 8,700  Level FlightAware ADS-B
Wed 03:40:17 PM 42.3070 -87.2410 175° South 297 342 8,700 -214 Level FlightAware ADS-B
Wed 03:40:42 PM 42.2710 -87.2360 174° South 295 339 8,500 -923 Descending FlightAware ADS-B
Wed 03:41:09 PM 42.2350 -87.2320 175° South 294 338 7,900 -1,412 Descending FlightAware ADS-B
Wed 03:41:33 PM 42.2030 -87.2280 175° South 293 337 7,300 -1,317 Descending FlightAware ADS-B
Wed 03:41:50 PM 42.1810 -87.2250 174° South 291 335 7,000 -1,227 Descending FlightAware ADS-B
Wed 03:42:17 PM 42.1470 -87.2360 193° South 281 323 6,400 -1,385 Descending FlightAware ADS-B
Wed 03:42:42 PM 42.1200 -87.2610 214° Southwest 277 319 5,800 -1,309 Descending FlightAware ADS-B
Wed 03:43:12 PM 42.0870 -87.2910 214° Southwest 271 312 5,200 -1,277 Descending FlightAware ADS-B
Wed 03:43:29 PM 42.0700 -87.3070 215° Southwest 269 310 4,800 -667 Descending FlightAware ADS-B
Wed 03:43:57 PM 42.0430 -87.3320 215° Southwest 267 307 4,700 -111 Descending FlightAware ADS-B
Wed 03:44:23 PM 42.0170 -87.3570 216° Southwest 268 308 4,700  Level FlightAware ADS-B
Wed 03:44:41 PM 41.9990 -87.3790 222° Southwest 257 296 4,700  Level FlightAware ADS-B
Wed 03:45:08 PM 41.9840 -87.4130 239° Southwest 230 265 4,700  Level FlightAware ADS-B
Wed 03:45:24 PM 41.9820 -87.4360 263° West 223 257 4,700  Level FlightAware ADS-B
Wed 03:45:51 PM 41.9830 -87.4700 272° West 222 255 4,700  Level FlightAware ADS-B
Wed 03:46:21 PM 41.9830 -87.5090 270° West 192 221 4,700  Level FlightAware ADS-B
Wed 03:46:50 PM 41.9830 -87.5410 270° West 177 204 4,700  Level FlightAware ADS-B
Wed 03:47:29 PM 41.9840 -87.5840 272° West 175 201 4,700 -429 Level FlightAware ADS-B
Wed 03:48:00 PM 41.9840 -87.6190 270° West 172 198 4,200 -1,000 Descending FlightAware ADS-B
Wed 03:48:23 PM 41.9840 -87.6430 270° West 172 198 3,800 -964 Descending FlightAware ADS-B
Wed 03:48:56 PM 41.9840 -87.6780 270° West 177 204 3,300 -1,019 Descending FlightAware ADS-B
Wed 03:49:16 PM 41.9840 -87.7020 270° West 177 204 2,900 -1,263 Descending FlightAware ADS-B
Wed 03:49:34 PM 41.9840 -87.7210 270° West 181 208 2,500 -1,256 Descending FlightAware ADS-B
Wed 03:49:59 PM 41.9840 -87.7490 270° West 182 209 2,000 -750 Descending FlightAware ADS-B
Wed 03:50:30 PM 41.9840 -87.7860 270° West 177 204 1,800 -612 Descending FlightAware ADS-B
Wed 03:50:48 PM 41.9840 -87.8050 270° West 163 188 1,500 -811 Descending FlightAware ADS-B
Wed 03:51:07 PM 41.9840 -87.8210 270° West 153 176 1,300 -750 Descending FlightAware ADS-B
Wed 03:51:44 PM 41.9840 -87.8550 270° West 133 153 800 -720 Descending FlightAware ADS-B
Wed 03:52:22 PM 41.9840 -87.8870 270° West 139 160 400 -632 Descending FlightAware ADS-B
Wed 03:53:04 PM 41.9840 -87.9110 270° West 33 38 -571 Descending FlightAware ADS-B
Wed 03:53:12 PM 41.9840 -87.9120 270° West 32 37  Level FlightAware ADS-B
Wed 03:55:22 PM 41.9830 -87.9070 105° East 16 18  Level FlightAware ADS-B

Login

Don't have an account? Register now (free) for customized features, flight alerts, and more!